createdAt,value
2023-04-26T00:00:26.461Z,100209.00
2023-04-26T00:01:29.562Z,100213.66
2023-04-26T00:02:33.074Z,100211.75
2023-04-26T00:03:35.744Z,100213.66
2023-04-26T00:04:39.330Z,100210.91
2023-04-26T00:05:41.811Z,100208.41
2023-04-26T00:06:44.165Z,100214.50
2023-04-26T00:07:46.815Z,100211.16
2023-04-26T00:08:49.188Z,100217.47
2023-04-26T00:09:54.699Z,100217.47
2023-04-26T00:10:57.195Z,100215.81
2023-04-26T00:11:59.688Z,100217.69
2023-04-26T00:13:01.947Z,100218.56
2023-04-26T00:14:04.232Z,100225.91
2023-04-26T00:15:07.732Z,100223.19
2023-04-26T00:16:10.007Z,100217.94
2023-04-26T00:17:12.622Z,100224.28
2023-04-26T00:18:14.934Z,100223.41
2023-04-26T00:19:20.113Z,100224.28
2023-04-26T00:20:22.405Z,100222.84
2023-04-26T00:21:24.664Z,100227.47
2023-04-26T00:22:26.952Z,100231.28
2023-04-26T00:23:30.562Z,100232.94
2023-04-26T00:24:34.724Z,100228.53
2023-04-26T00:25:37.764Z,100227.69
2023-04-26T00:26:40.081Z,100228.53
2023-04-26T00:27:42.358Z,100226.03
2023-04-26T00:28:44.574Z,100228.75
2023-04-26T00:29:46.946Z,100228.19
2023-04-26T00:30:49.252Z,100228.19
2023-04-26T00:31:51.809Z,100230.91
2023-04-26T00:32:54.087Z,100224.59
2023-04-26T00:33:56.541Z,100233.91
2023-04-26T00:34:58.803Z,100228.63
2023-04-26T00:36:01.065Z,100229.72
2023-04-26T00:37:05.107Z,100227.19
2023-04-26T00:38:09.061Z,100231.84
2023-04-26T00:39:11.403Z,100232.09
2023-04-26T00:40:14.157Z,100234.81
2023-04-26T00:41:17.003Z,100236.94
2023-04-26T00:42:19.691Z,100229.78
2023-04-26T00:43:22.020Z,100238.00
2023-04-26T00:44:24.384Z,100244.59
2023-04-26T00:45:27.279Z,100242.06
2023-04-26T00:46:31.218Z,100237.44
2023-04-26T00:47:33.985Z,100235.13
2023-04-26T00:48:37.627Z,100242.53
2023-04-26T00:49:40.899Z,100242.78
2023-04-26T00:50:43.522Z,100243.00
2023-04-26T00:51:47.678Z,100243.22
2023-04-26T00:52:50.757Z,100246.19
2023-04-26T00:53:53.670Z,100242.00
2023-04-26T00:54:56.729Z,100248.59
2023-04-26T00:55:59.424Z,100248.78
2023-04-26T00:57:02.587Z,100253.69
2023-04-26T00:58:04.934Z,100250.31
2023-04-26T00:59:07.504Z,100242.34
2023-04-26T01:00:10.470Z,100252.47
2023-04-26T01:01:13.613Z,100247.44
2023-04-26T01:02:17.830Z,100247.66
2023-04-26T01:03:20.507Z,100247.91
2023-04-26T01:04:26.482Z,100242.66
2023-04-26T01:05:28.945Z,100248.34
2023-04-26T01:06:34.806Z,100243.97
2023-04-26T01:07:38.838Z,100248.00
2023-04-26T01:08:41.727Z,100241.91
2023-04-26T01:09:44.676Z,100252.25
2023-04-26T01:10:51.041Z,100252.47
2023-04-26T01:11:54.017Z,100254.63
2023-04-26T01:12:58.126Z,100254.00
2023-04-26T01:14:01.115Z,100257.78
2023-04-26T01:15:04.180Z,100251.72
2023-04-26T01:16:08.310Z,100261.25
2023-04-26T01:17:10.667Z,100249.66
2023-04-26T01:18:15.556Z,100247.38
2023-04-26T01:19:18.505Z,100254.16
2023-04-26T01:20:21.416Z,100261.56
2023-04-26T01:21:25.215Z,100260.09
2023-04-26T01:22:28.764Z,100260.28
2023-04-26T01:23:32.016Z,100258.63
2023-04-26T01:24:36.362Z,100263.47
2023-04-26T01:25:39.551Z,100264.78
2023-04-26T01:26:48.229Z,100264.78
2023-04-26T01:27:51.497Z,100263.56
2023-04-26T01:28:55.224Z,100251.75
2023-04-26T01:29:57.459Z,100265.66
2023-04-26T01:30:59.842Z,100254.13
2023-04-26T01:32:02.291Z,100262.53
2023-04-26T01:33:04.645Z,100258.34
2023-04-26T01:34:06.925Z,100261.09
2023-04-26T01:35:09.633Z,100256.69
2023-04-26T01:36:11.943Z,100256.06
2023-04-26T01:37:14.317Z,100258.00
2023-04-26T01:38:18.123Z,100262.84
2023-04-26T01:39:20.980Z,100262.03
2023-04-26T01:40:25.924Z,100261.16
2023-04-26T01:41:28.234Z,100261.63
2023-04-26T01:42:31.563Z,100267.34
2023-04-26T01:43:37.167Z,100267.34
2023-04-26T01:44:40.125Z,100263.97
2023-04-26T01:45:42.398Z,100261.47
2023-04-26T01:47:03.016Z,100266.31
2023-04-26T01:48:06.836Z,100268.22
2023-04-26T01:49:09.127Z,100268.47
2023-04-26T01:50:11.746Z,100269.50
2023-04-26T01:51:15.611Z,100262.34
2023-04-26T01:52:18.130Z,100260.47
2023-04-26T01:53:21.581Z,100268.28
2023-04-26T01:54:23.812Z,100270.22
2023-04-26T01:55:26.124Z,100269.34
2023-04-26T01:56:28.422Z,100267.66
2023-04-26T01:57:31.630Z,100275.06
2023-04-26T01:58:33.912Z,100273.38
2023-04-26T01:59:36.840Z,100273.59
2023-04-26T02:00:39.227Z,100270.88
2023-04-26T02:01:42.490Z,100275.50
2023-04-26T02:02:46.688Z,100271.91
2023-04-26T02:03:49.740Z,100278.25
2023-04-26T02:04:55.077Z,100271.91
2023-04-26T02:06:00.284Z,100274.06
2023-04-26T02:07:03.740Z,100272.16
2023-04-26T02:08:06.379Z,100275.94
2023-04-26T02:09:09.994Z,100271.53
2023-04-26T02:10:16.028Z,100275.34
2023-04-26T02:11:18.500Z,100261.84
2023-04-26T02:12:20.882Z,100271.16
2023-04-26T02:13:23.243Z,100271.16
2023-04-26T02:14:25.851Z,100272.81
2023-04-26T02:15:28.070Z,100278.50
2023-04-26T02:16:32.208Z,100283.16
2023-04-26T02:17:34.706Z,100282.31
2023-04-26T02:18:37.033Z,100277.69
2023-04-26T02:19:39.857Z,100280.84
2023-04-26T02:20:46.128Z,100281.69
2023-04-26T02:21:56.408Z,100271.59
2023-04-26T02:22:58.786Z,100288.22
2023-04-26T02:24:01.144Z,100280.84
2023-04-26T02:25:03.758Z,100283.81
2023-04-26T02:26:06.274Z,100287.41
2023-04-26T02:27:08.523Z,100281.31
2023-04-26T02:28:10.796Z,100282.97
2023-04-26T02:29:13.095Z,100282.97
2023-04-26T02:30:15.666Z,100287.59
2023-04-26T02:31:19.628Z,100284.03
2023-04-26T02:32:23.374Z,100281.31
2023-04-26T02:33:26.043Z,100287.84
2023-04-26T02:34:28.341Z,100273.31
2023-04-26T02:35:30.847Z,100285.09
2023-04-26T02:36:34.050Z,100271.63
2023-04-26T02:37:37.530Z,100282.81
2023-04-26T02:38:39.963Z,100282.59
2023-04-26T02:39:43.196Z,100282.00
2023-04-26T02:40:45.831Z,100282.00
2023-04-26T02:41:48.792Z,100273.78
2023-04-26T02:42:52.247Z,100274.84
2023-04-26T02:43:54.488Z,100270.19
2023-04-26T02:44:57.828Z,100274.84
2023-04-26T02:46:01.474Z,100279.25
2023-04-26T02:47:05.540Z,100281.13
2023-04-26T02:48:08.218Z,100276.53
2023-04-26T02:49:10.728Z,100276.72
2023-04-26T02:50:13.021Z,100273.78
2023-04-26T02:51:16.223Z,100269.13
2023-04-26T02:52:20.776Z,100274.59
2023-04-26T02:53:23.527Z,100275.44
2023-04-26T02:54:26.158Z,100271.63
2023-04-26T02:55:28.548Z,100281.13
2023-04-26T02:56:31.586Z,100276.53
2023-04-26T02:57:34.016Z,100275.66
2023-04-26T02:58:36.342Z,100282.00
2023-04-26T02:59:38.595Z,100284.91
2023-04-26T03:00:51.227Z,100281.13
2023-04-26T03:01:54.019Z,100283.28
2023-04-26T03:02:57.249Z,100277.81
2023-04-26T03:03:59.985Z,100275.06
2023-04-26T03:05:02.916Z,100280.72
2023-04-26T03:06:06.541Z,100281.59
2023-04-26T03:07:08.966Z,100288.94
2023-04-26T03:08:12.823Z,100279.91
2023-04-26T03:09:15.056Z,100278.22
2023-04-26T03:10:17.613Z,100282.00
2023-04-26T03:11:19.920Z,100283.94
2023-04-26T03:12:22.168Z,100282.25
2023-04-26T03:13:24.957Z,100285.22
2023-04-26T03:14:29.216Z,100282.47
2023-04-26T03:15:32.280Z,100283.53
2023-04-26T03:16:42.693Z,100285.22
2023-04-26T03:17:45.030Z,100292.78
2023-04-26T03:18:48.025Z,100289.22
2023-04-26T03:19:50.327Z,100293.63
2023-04-26T03:20:53.511Z,100290.03
2023-04-26T03:21:58.024Z,100293.88
2023-04-26T03:23:00.319Z,100298.25
2023-04-26T03:24:02.644Z,100293.25
2023-04-26T03:25:06.711Z,100294.91
2023-04-26T03:26:09.156Z,100294.91
2023-04-26T03:27:11.509Z,100295.34
2023-04-26T03:28:14.402Z,100297.25
2023-04-26T03:29:17.461Z,100298.31
2023-04-26T03:30:19.750Z,100296.84
2023-04-26T03:31:23.079Z,100298.75
2023-04-26T03:32:25.931Z,100300.84
2023-04-26T03:33:28.200Z,100299.22
2023-04-26T03:34:30.536Z,100299.41
2023-04-26T03:35:33.066Z,100296.66
2023-04-26T03:36:36.006Z,100296.06
2023-04-26T03:37:40.937Z,100294.38
2023-04-26T03:38:46.869Z,100300.09
2023-04-26T03:39:52.747Z,100307.44
2023-04-26T03:40:57.267Z,100304.91
2023-04-26T03:42:02.205Z,100305.16
2023-04-26T03:43:04.482Z,100299.91
2023-04-26T03:44:06.968Z,100297.41
2023-04-26T03:45:10.802Z,100305.59
2023-04-26T03:46:13.947Z,100297.59
2023-04-26T03:47:16.212Z,100303.28
2023-04-26T03:48:18.505Z,100299.09
2023-04-26T03:49:21.333Z,100309.19
2023-04-26T03:50:24.018Z,100303.97
2023-04-26T03:51:28.451Z,100305.22
2023-04-26T03:52:31.099Z,100310.06
2023-04-26T03:53:33.672Z,100306.50
2023-04-26T03:54:36.538Z,100306.72
2023-04-26T03:55:39.203Z,100311.34
2023-04-26T03:56:41.696Z,100310.75
2023-04-26T03:57:45.099Z,100311.78
2023-04-26T03:58:47.482Z,100311.16
2023-04-26T03:59:51.140Z,100311.38
2023-04-26T04:00:56.881Z,100314.34
2023-04-26T04:01:59.298Z,100323.81
2023-04-26T04:03:01.902Z,100321.06
2023-04-26T04:04:04.393Z,100320.44
2023-04-26T04:05:07.344Z,100313.31
2023-04-26T04:06:09.773Z,100317.31
2023-04-26T04:07:12.039Z,100322.78
2023-04-26T04:08:15.832Z,100318.59
2023-04-26T04:09:19.354Z,100322.16
2023-04-26T04:10:23.324Z,100320.69
2023-04-26T04:11:25.641Z,100322.59
2023-04-26T04:12:27.884Z,100333.53
2023-04-26T04:13:30.139Z,100325.53
2023-04-26T04:14:32.665Z,100317.56
2023-04-26T04:15:35.708Z,100324.06
2023-04-26T04:16:38.118Z,100330.38
2023-04-26T04:17:40.436Z,100317.78
2023-04-26T04:18:46.003Z,100319.69
2023-04-26T04:19:48.890Z,100324.28
2023-04-26T04:20:51.600Z,100330.81
2023-04-26T04:21:53.890Z,100323.69
2023-04-26T04:22:56.432Z,100331.03
2023-04-26T04:23:58.815Z,100331.88
2023-04-26T04:25:01.118Z,100326.59
2023-04-26T04:26:03.460Z,100326.84
2023-04-26T04:27:05.872Z,100326.84
2023-04-26T04:28:08.802Z,100331.47
2023-04-26T04:29:11.563Z,100327.28
2023-04-26T04:30:14.756Z,100323.28
2023-04-26T04:31:17.852Z,100330.00
2023-04-26T04:32:20.431Z,100328.97
2023-04-26T04:33:22.994Z,100330.63
2023-04-26T04:34:26.316Z,100328.09
2023-04-26T04:35:33.785Z,100320.75
2023-04-26T04:36:39.213Z,100327.88
2023-04-26T04:37:41.770Z,100327.69
2023-04-26T04:38:44.517Z,100323.06
2023-04-26T04:39:47.557Z,100329.16
2023-04-26T04:40:50.556Z,100331.44
2023-04-26T04:41:54.630Z,100328.47
2023-04-26T04:42:57.083Z,100329.94
2023-04-26T04:44:01.969Z,100339.59
2023-04-26T04:45:05.369Z,100330.13
2023-04-26T04:46:10.078Z,100343.38
2023-04-26T04:47:15.433Z,100340.22
2023-04-26T04:48:19.740Z,100335.97
2023-04-26T04:49:22.366Z,100344.38
2023-04-26T04:50:24.707Z,100341.19
2023-04-26T04:51:28.283Z,100346.84
2023-04-26T04:52:33.312Z,100344.28
2023-04-26T04:53:36.029Z,100342.78
2023-04-26T04:54:38.345Z,100342.97
2023-04-26T04:55:42.296Z,100347.59
2023-04-26T04:56:46.139Z,100343.97
2023-04-26T04:57:50.146Z,100342.25
2023-04-26T04:58:52.756Z,100335.69
2023-04-26T04:59:58.361Z,100353.94
2023-04-26T05:01:01.540Z,100342.13
2023-04-26T05:02:17.820Z,100343.53
2023-04-26T05:03:20.463Z,100342.44
2023-04-26T05:04:23.353Z,100346.78
2023-04-26T05:05:25.976Z,100351.16
2023-04-26T05:06:28.500Z,100343.47
2023-04-26T05:07:35.063Z,100340.47
2023-04-26T05:08:37.911Z,100349.44
2023-04-26T05:09:44.364Z,100350.41
2023-04-26T05:10:47.043Z,100348.22
2023-04-26T05:11:49.352Z,100347.94
2023-04-26T05:12:51.873Z,100346.78
2023-04-26T05:13:54.547Z,100348.16
2023-04-26T05:14:57.053Z,100357.75
2023-04-26T05:15:59.324Z,100354.47
2023-04-26T05:17:01.944Z,100350.38
2023-04-26T05:18:04.491Z,100357.22
2023-04-26T05:19:09.152Z,100362.13
2023-04-26T05:20:12.597Z,100356.94
2023-04-26T05:21:15.020Z,100360.78
2023-04-26T05:22:19.010Z,100353.06
2023-04-26T05:23:21.845Z,100352.28
2023-04-26T05:24:24.315Z,100361.38
2023-04-26T05:25:27.118Z,100357.22
2023-04-26T05:26:47.548Z,100356.78
2023-04-26T05:28:17.126Z,100353.00
2023-04-26T05:29:45.967Z,100351.72
2023-04-26T05:31:12.388Z,100356.97
2023-04-26T05:32:25.537Z,100350.63
2023-04-26T05:33:38.137Z,100356.94
2023-04-26T05:35:01.631Z,100368.53
2023-04-26T05:36:07.281Z,100365.19
2023-04-26T05:37:09.661Z,100359.06
2023-04-26T05:38:12.058Z,100367.28
2023-04-26T05:39:14.308Z,100371.06
2023-04-26T05:40:16.892Z,100370.44
2023-04-26T05:41:19.180Z,100366.84
2023-04-26T05:42:21.545Z,100372.53
2023-04-26T05:43:24.310Z,100376.31
2023-04-26T05:44:26.967Z,100380.06
2023-04-26T05:45:29.720Z,100381.13
2023-04-26T05:46:32.068Z,100376.91
2023-04-26T05:47:34.393Z,100381.47
2023-04-26T05:48:36.706Z,100378.91
2023-04-26T05:49:38.964Z,100386.53
2023-04-26T05:50:41.262Z,100377.00
2023-04-26T05:51:44.455Z,100380.75
2023-04-26T05:52:47.067Z,100377.06
2023-04-26T05:53:49.489Z,100379.13
2023-04-26T05:54:52.801Z,100388.38
2023-04-26T05:55:55.066Z,100376.91
2023-04-26T05:56:59.168Z,100378.97
2023-04-26T05:58:02.569Z,100376.59
2023-04-26T05:59:06.356Z,100373.16
2023-04-26T06:00:10.306Z,100371.84
2023-04-26T06:01:20.133Z,100380.88
2023-04-26T06:02:22.480Z,100382.09
2023-04-26T06:03:25.153Z,100381.38
2023-04-26T06:04:28.258Z,100377.06
2023-04-26T06:05:40.083Z,100382.69
2023-04-26T06:06:42.746Z,100382.47
2023-04-26T06:07:45.621Z,100380.59
2023-04-26T06:08:47.877Z,100385.06
2023-04-26T06:09:50.148Z,100388.44
2023-04-26T06:10:52.459Z,100390.16
2023-04-26T06:11:54.855Z,100388.31
2023-04-26T06:12:57.345Z,100382.22
2023-04-26T06:14:01.985Z,100386.13
2023-04-26T06:15:05.539Z,100383.16
2023-04-26T06:16:09.412Z,100393.44
2023-04-26T06:17:11.885Z,100387.09
2023-04-26T06:18:14.426Z,100381.06
2023-04-26T06:19:16.737Z,100389.38
2023-04-26T06:20:19.200Z,100384.72
2023-04-26T06:21:21.513Z,100386.94
2023-04-26T06:22:24.116Z,100381.75
2023-04-26T06:23:26.337Z,100386.50
2023-04-26T06:24:28.680Z,100381.25
2023-04-26T06:25:31.050Z,100388.75
2023-04-26T06:26:33.413Z,100378.78
2023-04-26T06:27:35.902Z,100382.13
2023-04-26T06:28:39.905Z,100379.91
2023-04-26T06:29:43.970Z,100382.44
2023-04-26T06:30:46.481Z,100385.44
2023-04-26T06:31:49.980Z,100390.16
2023-04-26T06:32:54.489Z,100386.84
2023-04-26T06:33:56.741Z,100378.84
2023-04-26T06:34:59.435Z,100385.75
2023-04-26T06:36:01.704Z,100388.50
2023-04-26T06:37:05.610Z,100386.59
2023-04-26T06:38:08.723Z,100385.47
2023-04-26T06:39:12.034Z,100393.53
2023-04-26T06:40:16.071Z,100391.03
2023-04-26T06:41:18.804Z,100390.78
2023-04-26T06:42:23.986Z,100388.06
2023-04-26T06:43:49.380Z,100399.75
2023-04-26T06:44:56.307Z,100387.59
2023-04-26T06:45:58.762Z,100385.69
2023-04-26T06:47:01.079Z,100394.59
2023-04-26T06:48:05.432Z,100393.75
2023-04-26T06:49:08.776Z,100402.91
2023-04-26T06:50:11.619Z,100388.25
2023-04-26T06:51:14.116Z,100400.75
2023-04-26T06:52:16.457Z,100405.50
2023-04-26T06:53:19.495Z,100396.94
2023-04-26T06:54:29.185Z,100395.81
2023-04-26T06:55:32.886Z,100394.72
2023-04-26T06:56:36.654Z,100393.91
2023-04-26T06:57:39.260Z,100393.06
2023-04-26T06:58:59.208Z,100407.81
2023-04-26T07:00:01.619Z,100398.13
2023-04-26T07:01:03.978Z,100394.81
2023-04-26T07:02:07.170Z,100407.00
2023-04-26T07:03:09.974Z,100402.56
2023-04-26T07:04:12.746Z,100397.56
2023-04-26T07:05:15.733Z,100401.16
2023-04-26T07:06:18.216Z,100406.69
2023-04-26T07:07:20.675Z,100403.38
2023-04-26T07:08:22.918Z,100401.44
2023-04-26T07:09:25.202Z,100404.19
2023-04-26T07:10:27.931Z,100401.44
2023-04-26T07:11:30.922Z,100403.38
2023-04-26T07:12:33.475Z,100402.81
2023-04-26T07:13:35.751Z,100405.59
2023-04-26T07:14:41.148Z,100403.41
2023-04-26T07:15:45.059Z,100402.28
2023-04-26T07:16:47.393Z,100412.25
2023-04-26T07:17:49.876Z,100403.69
2023-04-26T07:18:53.194Z,100401.47
2023-04-26T07:19:56.252Z,100413.13
2023-04-26T07:20:58.601Z,100404.81
2023-04-26T07:22:01.531Z,100397.00
2023-04-26T07:23:03.829Z,100400.06
2023-04-26T07:24:07.219Z,100398.41
2023-04-26T07:25:10.054Z,100410.84
2023-04-26T07:26:12.517Z,100405.31
2023-04-26T07:27:14.789Z,100403.38
2023-04-26T07:28:17.024Z,100402.56
2023-04-26T07:29:19.312Z,100407.78
2023-04-26T07:30:21.557Z,100404.13
2023-04-26T07:31:23.914Z,100404.69
2023-04-26T07:32:26.316Z,100407.44
2023-04-26T07:33:28.716Z,100400.78
2023-04-26T07:34:31.164Z,100408.53
2023-04-26T07:35:35.622Z,100406.34
2023-04-26T07:36:37.958Z,100406.03
2023-04-26T07:37:40.267Z,100404.94
2023-04-26T07:38:43.012Z,100400.75
2023-04-26T07:39:45.654Z,100401.56
2023-04-26T07:40:47.884Z,100407.66
2023-04-26T07:41:50.473Z,100412.38
2023-04-26T07:42:53.829Z,100406.28
2023-04-26T07:43:56.118Z,100411.25
2023-04-26T07:44:58.402Z,100413.75
2023-04-26T07:46:03.884Z,100399.91
2023-04-26T07:47:11.554Z,100408.44
2023-04-26T07:48:13.835Z,100409.03
2023-04-26T07:49:17.476Z,100412.91
2023-04-26T07:50:21.102Z,100412.13
2023-04-26T07:51:23.329Z,100417.09
2023-04-26T07:52:25.637Z,100405.22
2023-04-26T07:53:27.999Z,100409.09
2023-04-26T07:54:30.301Z,100403.88
2023-04-26T07:55:32.564Z,100404.97
2023-04-26T07:56:35.169Z,100405.53
2023-04-26T07:57:39.086Z,100401.94
2023-04-26T07:58:43.966Z,100407.78
2023-04-26T07:59:46.347Z,100409.47
2023-04-26T08:00:48.611Z,100410.56
2023-04-26T08:01:50.964Z,100400.56
2023-04-26T08:02:53.428Z,100409.47
2023-04-26T08:03:56.514Z,100398.41
2023-04-26T08:04:59.294Z,100407.53
2023-04-26T08:06:02.394Z,100400.31
2023-04-26T08:07:04.865Z,100410.56
2023-04-26T08:08:07.664Z,100411.66
2023-04-26T08:09:10.222Z,100400.84
2023-04-26T08:10:12.721Z,100408.31
2023-04-26T08:11:15.040Z,100400.56
2023-04-26T08:12:17.349Z,100403.03
2023-04-26T08:13:19.902Z,100410.53
2023-04-26T08:14:23.299Z,100405.78
2023-04-26T08:15:25.684Z,100412.97
2023-04-26T08:16:28.116Z,100416.56
2023-04-26T08:17:32.353Z,100404.31
2023-04-26T08:18:34.654Z,100409.28
2023-04-26T08:19:37.235Z,100411.22
2023-04-26T08:20:39.730Z,100409.53
2023-04-26T08:21:42.287Z,100412.53
2023-04-26T08:22:44.619Z,100403.91
2023-04-26T08:23:48.237Z,100413.28
2023-04-26T08:24:51.889Z,100408.81
2023-04-26T08:25:54.485Z,100411.81
2023-04-26T08:26:58.738Z,100416.50
2023-04-26T08:28:01.983Z,100414.81
2023-04-26T08:29:04.333Z,100414.00
2023-04-26T08:30:07.395Z,100415.41
2023-04-26T08:31:10.443Z,100411.53
2023-04-26T08:32:12.900Z,100414.53
2023-04-26T08:33:15.201Z,100408.78
2023-04-26T08:34:17.857Z,100413.19
2023-04-26T08:35:20.120Z,100406.28
2023-04-26T08:36:22.468Z,100408.25
2023-04-26T08:37:24.820Z,100408.56
2023-04-26T08:38:27.159Z,100408.00
2023-04-26T08:39:29.439Z,100416.63
2023-04-26T08:40:31.846Z,100414.41
2023-04-26T08:41:37.698Z,100404.47
2023-04-26T08:42:44.013Z,100409.19
2023-04-26T08:43:46.425Z,100404.78
2023-04-26T08:44:49.419Z,100413.97
2023-04-26T08:45:51.951Z,100416.75
2023-04-26T08:47:06.197Z,100415.66
2023-04-26T08:48:14.973Z,100415.69
2023-04-26T08:49:43.921Z,100418.19
2023-04-26T08:50:48.812Z,100408.25
2023-04-26T08:51:51.707Z,100410.78
2023-04-26T08:52:54.028Z,100409.94
2023-04-26T08:53:58.682Z,100416.56
2023-04-26T08:55:01.688Z,100413.56
2023-04-26T08:56:05.124Z,100406.06
2023-04-26T08:57:08.274Z,100411.59
2023-04-26T08:58:11.983Z,100411.59
2023-04-26T08:59:15.152Z,100415.75
2023-04-26T09:00:18.483Z,100413.53
2023-04-26T09:01:21.857Z,100407.69
2023-04-26T09:02:24.944Z,100411.84
2023-04-26T09:03:28.376Z,100415.69
2023-04-26T09:04:31.915Z,100417.66
2023-04-26T09:05:34.923Z,100418.47
2023-04-26T09:06:38.092Z,100419.31
2023-04-26T09:07:44.996Z,100416.56
2023-04-26T09:08:48.042Z,100414.88
2023-04-26T09:09:54.293Z,100415.41
2023-04-26T09:10:56.787Z,100411.81
2023-04-26T09:12:01.767Z,100413.75
2023-04-26T09:13:04.055Z,100427.59
2023-04-26T09:14:06.615Z,100411.22
2023-04-26T09:15:09.708Z,100425.06
2023-04-26T09:16:12.056Z,100418.16
2023-04-26T09:17:34.983Z,100415.94
2023-04-26T09:18:49.911Z,100411.78
2023-04-26T09:19:52.351Z,100406.84
2023-04-26T09:21:09.026Z,100415.69
2023-04-26T09:22:11.429Z,100419.59
2023-04-26T09:23:13.808Z,100414.94
2023-04-26T09:24:16.262Z,100414.38
2023-04-26T09:25:26.609Z,100416.06
2023-04-26T09:26:28.979Z,100408.94
2023-04-26T09:27:35.711Z,100417.78
2023-04-26T09:28:38.055Z,100413.41
2023-04-26T09:29:41.151Z,100410.63
2023-04-26T09:30:43.410Z,100417.56
2023-04-26T09:31:49.782Z,100412.56
2023-04-26T09:33:06.871Z,100409.81
2023-04-26T09:34:11.221Z,100416.47
2023-04-26T09:35:31.097Z,100416.75
2023-04-26T09:36:33.355Z,100417.31
2023-04-26T09:38:44.027Z,100415.66
2023-04-26T09:39:46.355Z,100419.81
2023-04-26T09:40:50.993Z,100417.56
2023-04-26T09:41:53.493Z,100417.03
2023-04-26T09:43:01.078Z,100415.94
2023-04-26T09:44:03.444Z,100418.97
2023-04-26T09:45:06.723Z,100414.28
2023-04-26T09:46:09.000Z,100423.69
2023-04-26T09:47:12.602Z,100408.16
2023-04-26T09:48:23.877Z,100414.25
2023-04-26T09:49:27.645Z,100414.25
2023-04-26T09:50:32.055Z,100415.09
2023-04-26T09:51:34.548Z,100412.03
2023-04-26T09:52:44.606Z,100412.59
2023-04-26T09:53:50.122Z,100410.66
2023-04-26T09:54:54.641Z,100419.25
2023-04-26T09:55:58.649Z,100420.09
2023-04-26T09:57:01.904Z,100419.53
2023-04-26T09:58:11.211Z,100418.97
2023-04-26T09:59:13.629Z,100419.25
2023-04-26T10:00:16.436Z,100421.47
2023-04-26T10:01:20.227Z,100424.78
2023-04-26T10:02:27.561Z,100422.00
2023-04-26T10:03:32.571Z,100413.41
2023-04-26T10:04:35.163Z,100424.50
2023-04-26T10:05:37.987Z,100423.63
2023-04-26T10:06:40.332Z,100419.19
2023-04-26T10:07:42.732Z,100429.16
2023-04-26T10:08:45.670Z,100423.59
2023-04-26T10:09:48.960Z,100422.72
2023-04-26T10:10:51.688Z,100426.31
2023-04-26T10:11:54.608Z,100426.28
2023-04-26T10:12:58.421Z,100427.94
2023-04-26T10:14:00.870Z,100425.16
2023-04-26T10:15:03.857Z,100425.13
2023-04-26T10:16:07.221Z,100416.81
2023-04-26T10:17:09.756Z,100420.13
2023-04-26T10:18:12.123Z,100413.75
2023-04-26T10:19:14.692Z,100415.13
2023-04-26T10:20:20.808Z,100409.84
2023-04-26T10:21:30.389Z,100414.56
2023-04-26T10:22:43.641Z,100415.66
2023-04-26T10:23:47.470Z,100412.34
2023-04-26T10:24:50.902Z,100414.00
2023-04-26T10:25:54.902Z,100414.84
2023-04-26T10:26:57.748Z,100406.81
2023-04-26T10:28:00.098Z,100412.06
2023-04-26T10:29:03.476Z,100416.50
2023-04-26T10:30:08.289Z,100415.66
2023-04-26T10:31:11.173Z,100418.69
2023-04-26T10:32:17.582Z,100420.06
2023-04-26T10:33:20.707Z,100422.03
2023-04-26T10:34:23.312Z,100420.63
2023-04-26T10:35:27.118Z,100411.47
2023-04-26T10:36:29.516Z,100416.19
2023-04-26T10:37:31.851Z,100411.75
2023-04-26T10:38:38.513Z,100417.28
2023-04-26T10:39:44.945Z,100415.59
2023-04-26T10:40:48.045Z,100414.50
2023-04-26T10:41:50.435Z,100418.38
2023-04-26T10:43:15.213Z,100422.00
2023-04-26T10:44:41.029Z,100420.31
2023-04-26T10:45:49.519Z,100414.78
2023-04-26T10:46:53.017Z,100411.44
2023-04-26T10:48:20.862Z,100413.13
2023-04-26T10:49:26.467Z,100408.94
2023-04-26T10:50:29.364Z,100411.41
2023-04-26T10:51:32.056Z,100411.97
2023-04-26T10:52:41.881Z,100417.78
2023-04-26T10:53:47.011Z,100416.94
2023-04-26T10:54:50.737Z,100417.13
2023-04-26T10:55:53.750Z,100414.09
2023-04-26T10:56:56.433Z,100405.22
2023-04-26T10:57:58.791Z,100405.47
2023-04-26T11:00:27.914Z,100411.22
2023-04-26T11:01:32.266Z,100413.69
2023-04-26T11:02:53.622Z,100408.13
2023-04-26T11:03:59.247Z,100414.44
2023-04-26T11:05:04.532Z,100414.16
2023-04-26T11:06:10.874Z,100409.13
2023-04-26T11:07:14.218Z,100411.34
2023-04-26T11:08:18.495Z,100409.06
2023-04-26T11:09:40.910Z,100410.19
2023-04-26T11:10:46.372Z,100414.88
2023-04-26T11:11:53.633Z,100415.13
2023-04-26T11:13:06.921Z,100410.69
2023-04-26T11:14:09.300Z,100414.03
2023-04-26T11:15:12.938Z,100408.19
2023-04-26T11:16:16.864Z,100408.75
2023-04-26T11:17:20.548Z,100414.50
2023-04-26T11:18:24.016Z,100423.06
2023-04-26T11:19:28.223Z,100413.97
2023-04-26T11:20:32.574Z,100415.06
2023-04-26T11:21:36.757Z,100413.38
2023-04-26T11:22:42.242Z,100417.28
2023-04-26T11:23:54.073Z,100409.78
2023-04-26T11:25:00.704Z,100405.34
2023-04-26T11:26:04.782Z,100419.19
2023-04-26T11:27:12.253Z,100415.31
2023-04-26T11:28:15.004Z,100422.53
2023-04-26T11:29:22.480Z,100415.88
2023-04-26T11:30:25.023Z,100421.41
2023-04-26T11:31:30.400Z,100415.88
2023-04-26T11:32:33.804Z,100422.53
2023-04-26T11:33:36.192Z,100418.91
2023-04-26T11:34:42.094Z,100420.84
2023-04-26T11:35:44.740Z,100423.63
2023-04-26T11:36:47.305Z,100427.47
2023-04-26T11:37:52.065Z,100421.13
2023-04-26T11:38:54.598Z,100419.72
2023-04-26T11:39:57.906Z,100427.16
2023-04-26T11:41:02.462Z,100429.09
2023-04-26T11:42:08.833Z,100423.84
2023-04-26T11:43:11.989Z,100426.88
2023-04-26T11:44:18.799Z,100422.72
2023-04-26T11:45:21.690Z,100423.78
2023-04-26T11:46:25.530Z,100427.66
2023-04-26T11:47:31.375Z,100412.16
2023-04-26T11:48:35.617Z,100418.22
2023-04-26T11:49:38.264Z,100421.50
2023-04-26T11:50:41.422Z,100417.59
2023-04-26T11:51:45.084Z,100425.31
2023-04-26T11:52:47.508Z,100428.34
2023-04-26T11:53:51.942Z,100426.94
2023-04-26T11:55:07.957Z,100431.88
2023-04-26T11:56:17.940Z,100429.94
2023-04-26T11:57:20.847Z,100421.94
2023-04-26T11:58:24.601Z,100413.91
2023-04-26T11:59:29.362Z,100416.66
2023-04-26T12:00:31.754Z,100411.72
2023-04-26T12:01:34.081Z,100425.53
2023-04-26T12:02:37.150Z,100432.22
2023-04-26T12:03:41.462Z,100429.94
2023-04-26T12:04:45.546Z,100428.03
2023-04-26T12:05:55.580Z,100429.13
2023-04-26T12:06:58.643Z,100426.38
2023-04-26T12:08:01.061Z,100431.31
2023-04-26T12:09:06.126Z,100431.31
2023-04-26T12:10:15.153Z,100428.53
2023-04-26T12:11:20.200Z,100425.22
2023-04-26T12:12:23.769Z,100432.44
2023-04-26T12:13:26.464Z,100430.75